Time;durP1;ratioP1;P1;durP2;ratioP2;P2;SDS_P1;SDS_P2;PMS_P1;PMS_P2;Temp;Humidity;BMP_temperature;BMP_pressure;BME280_temperature;BME280_humidity;BME280_pressure;Samples;Min_cycle;Max_cycle;Signal;HPM_P1;HPM_P2
2022/11/10 00:00:51;;;;;;;12.32;3.78;;;8.80;99.90;;;;;;5133984;27;20039;-64
2022/11/10 00:03:17;;;;;;;18.90;4.75;;;8.70;99.90;;;;;;5134401;27;20158;-64
2022/11/10 00:05:42;;;;;;;15.95;3.30;;;8.70;99.90;;;;;;5134172;27;20039;-63
2022/11/10 00:08:10;;;;;;;15.23;4.00;;;8.30;99.90;;;;;;5134167;27;20131;-64
2022/11/10 00:11:00;;;;;;;21.13;3.55;;;9.50;99.90;;;;;;5133707;27;20497;-64
2022/11/10 00:13:24;;;;;;;;;;;8.60;99.90;;;;;;5134199;27;20047;-64
2022/11/10 00:18:34;;;;;;;14.52;4.65;;;9.20;99.90;;;;;;5133252;27;20043;-64
2022/11/10 00:21:05;;;;;;;11.35;2.78;;;9.10;99.90;;;;;;5134190;27;20156;-65
2022/11/10 00:23:30;;;;;;;18.88;3.70;;;9.50;99.90;;;;;;5134074;27;20526;-64
2022/11/10 00:25:57;;;;;;;17.25;4.03;;;8.90;99.90;;;;;;5133788;27;20043;-64
2022/11/10 00:28:23;;;;;;;11.85;3.50;;;8.90;99.90;;;;;;5133633;27;20487;-64
2022/11/10 00:30:49;;;;;;;15.82;2.90;;;8.70;99.90;;;;;;5133847;27;20043;-64
2022/11/10 00:33:14;;;;;;;9.68;3.35;;;9.00;99.90;;;;;;5131307;27;20082;-64
2022/11/10 00:35:40;;;;;;;17.92;4.32;;;8.90;99.90;;;;;;5134044;27;20062;-65
2022/11/10 00:38:06;;;;;;;17.33;3.72;;;9.90;99.90;;;;;;5134198;27;20053;-65
2022/11/10 00:40:32;;;;;;;15.60;3.47;;;9.20;99.90;;;;;;5133624;27;20031;-64
2022/11/10 00:42:57;;;;;;;15.30;3.88;;;8.90;99.90;;;;;;5133883;27;20487;-64
2022/11/10 00:45:23;;;;;;;15.70;3.53;;;9.00;99.90;;;;;;5133856;27;20049;-64
2022/11/10 00:47:48;;;;;;;12.98;3.65;;;9.60;99.90;;;;;;5133790;28;20079;-64
2022/11/10 00:50:14;;;;;;;16.73;4.35;;;9.50;99.90;;;;;;5133688;28;20060;-64
2022/11/10 00:52:40;;;;;;;14.75;4.00;;;8.70;99.90;;;;;;5133736;28;20097;-66
2022/11/10 00:55:06;;;;;;;15.50;4.70;;;8.70;99.90;;;;;;5133439;28;20509;-65
2022/11/10 00:57:31;;;;;;;15.52;4.63;;;8.70;99.90;;;;;;5133652;27;20043;-65
2022/11/10 00:59:57;;;;;;;14.02;4.80;;;9.00;99.90;;;;;;5133674;28;20036;-64
2022/11/10 01:02:23;;;;;;;16.58;4.97;;;8.60;99.90;;;;;;5133603;28;20130;-64
2022/11/10 01:04:48;;;;;;;19.08;4.30;;;8.90;99.90;;;;;;5133617;28;20047;-64
2022/11/10 01:07:14;;;;;;;22.08;5.38;;;9.10;99.90;;;;;;5133662;27;20083;-64
2022/11/10 01:09:40;;;;;;;22.10;4.53;;;9.20;99.90;;;;;;5133334;28;20047;-64
2022/11/10 01:12:05;;;;;;;20.60;5.80;;;9.20;99.90;;;;;;5133573;27;20051;-66
2022/11/10 01:14:31;;;;;;;19.10;5.35;;;8.70;99.90;;;;;;5133530;27;20129;-64
2022/11/10 01:16:57;;;;;;;17.90;4.55;;;9.10;99.90;;;;;;5133501;28;20043;-64
2022/11/10 01:19:22;;;;;;;27.80;5.75;;;8.90;99.90;;;;;;5133504;27;20050;-64
2022/11/10 01:21:51;;;;;;;23.23;5.35;;;8.70;99.90;;;;;;5133435;28;20046;-64
2022/11/10 01:24:19;;;;;;;15.43;5.20;;;8.80;99.90;;;;;;5133111;28;20043;-64
2022/11/10 01:26:45;;;;;;;19.95;5.70;;;9.30;99.90;;;;;;5133422;27;20510;-64
2022/11/10 01:29:11;;;;;;;24.52;6.25;;;9.30;99.90;;;;;;5133339;28;20039;-64
2022/11/10 01:31:36;;;;;;;23.05;6.32;;;9.40;99.90;;;;;;5132125;28;20491;-64
2022/11/10 01:34:02;;;;;;;23.70;5.50;;;9.20;99.90;;;;;;5133305;27;20503;-64
2022/11/10 01:36:28;;;;;;;21.67;6.15;;;9.10;99.90;;;;;;5133019;27;20047;-64
2022/11/10 01:38:53;;;;;;;26.45;5.60;;;8.70;99.90;;;;;;5133013;28;20043;-64
2022/11/10 01:41:19;;;;;;;18.10;4.95;;;9.00;99.90;;;;;;5133303;28;20043;-64
2022/11/10 01:43:45;;;;;;;20.95;5.72;;;8.80;99.90;;;;;;5134757;27;20479;-64
2022/11/10 01:46:12;;;;;;;24.92;5.38;;;8.90;99.90;;;;;;5137030;27;20045;-64
2022/11/10 01:48:49;;;;;;;28.55;5.43;;;8.80;99.90;;;;;;5137087;27;20468;-64
2022/11/10 01:51:33;;;;;;;19.13;5.07;;;9.10;99.90;;;;;;5136929;27;20039;-64
2022/11/10 01:54:05;;;;;;;27.42;6.03;;;8.60;99.90;;;;;;5136723;27;20043;-63
2022/11/10 01:56:35;;;;;;;33.63;7.40;;;8.60;99.90;;;;;;5136996;27;20054;-64
2022/11/10 01:59:04;;;;;;;27.00;5.95;;;9.40;99.90;;;;;;5136968;27;20095;-64
2022/11/10 02:01:29;;;;;;;27.52;5.63;;;8.70;99.90;;;;;;5136820;27;20043;-64
2022/11/10 02:04:02;;;;;;;33.25;6.13;;;9.30;99.90;;;;;;5136712;27;20053;-64
2022/11/10 02:06:36;;;;;;;20.55;6.90;;;9.20;99.90;;;;;;5136407;27;20550;-64
2022/11/10 02:09:03;;;;;;;22.20;6.50;;;8.70;99.90;;;;;;5136807;27;20051;-65
2022/11/10 02:11:30;;;;;;;22.23;5.43;;;8.50;99.90;;;;;;5135357;27;20134;-65
2022/11/10 02:13:57;;;;;;;28.85;5.38;;;8.60;99.90;;;;;;5136532;27;20066;-68
2022/11/10 02:16:23;;;;;;;27.48;7.25;;;8.50;99.90;;;;;;5136492;27;20035;-65
2022/11/10 02:18:48;;;;;;;20.27;5.55;;;9.50;99.90;;;;;;5136447;27;20092;-64
2022/11/10 02:21:19;;;;;;;24.00;6.32;;;8.50;99.90;;;;;;5136200;27;20054;-64
2022/11/10 02:23:50;;;;;;;22.00;5.85;;;8.60;99.90;;;;;;5136407;27;20043;-64
2022/11/10 02:26:21;;;;;;;29.10;6.82;;;9.30;99.90;;;;;;5136605;27;20090;-66
2022/11/10 02:28:47;;;;;;;24.55;6.85;;;8.70;99.90;;;;;;5136389;27;20479;-64
2022/11/10 02:31:13;;;;;;;23.60;6.50;;;9.30;99.90;;;;;;5136289;27;20046;-64
2022/11/10 02:33:39;;;;;;;25.67;7.28;;;9.80;99.90;;;;;;5135699;27;20078;-64
2022/11/10 02:36:05;;;;;;;26.10;7.38;;;9.20;99.90;;;;;;5135931;27;20051;-64
2022/11/10 02:38:31;;;;;;;32.75;8.55;;;8.70;99.90;;;;;;5136130;27;20043;-64
2022/11/10 02:40:56;;;;;;;25.42;7.60;;;8.40;99.90;;;;;;5135778;27;20115;-65
2022/11/10 02:43:22;;;;;;;34.70;8.52;;;8.60;99.90;;;;;;5136039;27;20043;-64
2022/11/10 02:45:48;;;;;;;31.95;7.53;;;8.50;99.90;;;;;;5134799;27;20079;-64
2022/11/10 02:48:15;;;;;;;37.53;7.35;;;8.60;99.90;;;;;;5135610;27;20054;-64
2022/11/10 02:50:40;;;;;;;38.38;8.07;;;9.40;99.90;;;;;;5134260;27;20035;-64
2022/11/10 02:53:07;;;;;;;30.95;7.78;;;8.90;99.90;;;;;;5135828;27;20049;-64
2022/11/10 02:55:32;;;;;;;;;;;9.40;99.90;;;;;;5135686;27;20122;-64
2022/11/10 02:57:58;;;;;;;29.10;7.65;;;9.30;99.90;;;;;;5135740;27;19978;-64
2022/11/10 03:00:24;;;;;;;32.13;7.50;;;9.00;99.90;;;;;;5135696;27;20035;-64
2022/11/10 03:03:01;;;;;;;37.30;7.15;;;9.40;99.90;;;;;;5135929;27;20130;-64
2022/11/10 03:05:27;;;;;;;26.80;7.07;;;9.60;99.90;;;;;;5135674;27;20396;-63
2022/11/10 03:07:58;;;;;;;33.03;7.97;;;9.50;99.90;;;;;;5135566;27;20047;-64
2022/11/10 03:10:24;;;;;;;35.80;8.50;;;9.40;99.90;;;;;;5135433;27;20566;-64
2022/11/10 03:12:58;;;;;;;32.42;8.75;;;9.10;99.90;;;;;;5135430;27;20046;-64
2022/11/10 03:15:24;;;;;;;28.17;7.93;;;9.50;99.90;;;;;;5135432;27;20043;-64
2022/11/10 03:17:50;;;;;;;24.33;7.45;;;9.60;99.90;;;;;;5135038;27;20043;-64
2022/11/10 03:20:16;;;;;;;23.85;7.68;;;9.10;99.90;;;;;;5134977;27;20176;-64
2022/11/10 03:22:42;;;;;;;34.45;7.18;;;9.40;99.90;;;;;;5135245;27;20137;-64
2022/11/10 03:25:11;;;;;;;27.23;7.20;;;9.80;99.90;;;;;;5135148;27;20069;-64
2022/11/10 03:27:37;;;;;;;33.72;7.93;;;8.90;99.90;;;;;;5135150;27;20150;-64
2022/11/10 03:30:04;;;;;;;34.67;7.10;;;9.40;99.90;;;;;;5133737;27;20155;-64
2022/11/10 03:32:30;;;;;;;28.13;7.63;;;9.40;99.90;;;;;;5133859;27;20070;-64
2022/11/10 03:34:56;;;;;;;25.63;7.28;;;9.40;99.90;;;;;;5134670;27;20466;-64
2022/11/10 03:37:22;;;;;;;35.38;7.65;;;9.30;99.90;;;;;;5135004;27;20137;-64
2022/11/10 03:39:47;;;;;;;23.98;6.95;;;9.10;99.90;;;;;;5135204;27;20043;-64
2022/11/10 03:42:13;;;;;;;39.30;7.90;;;9.40;99.90;;;;;;5134796;27;20047;-64
2022/11/10 03:44:39;;;;;;;27.27;6.22;;;9.20;99.90;;;;;;5134828;27;20039;-64
2022/11/10 03:47:04;;;;;;;32.63;6.60;;;9.10;99.90;;;;;;5134771;27;20099;-64
2022/11/10 03:49:30;;;;;;;37.15;7.72;;;9.00;99.90;;;;;;5134277;27;20052;-64
2022/11/10 03:51:56;;;;;;;35.53;7.82;;;8.80;99.90;;;;;;5134648;27;20074;-64
2022/11/10 03:54:22;;;;;;;33.38;7.57;;;9.80;99.90;;;;;;5134624;27;20764;-63
2022/11/10 03:56:48;;;;;;;29.40;6.82;;;9.50;99.90;;;;;;5134259;27;20056;-64
2022/11/10 03:59:13;;;;;;;37.22;7.38;;;9.20;99.90;;;;;;5134831;27;20087;-64
2022/11/10 04:01:39;;;;;;;26.02;6.78;;;9.60;99.90;;;;;;5134446;27;20039;-64
2022/11/10 04:08:57;;;;;;;25.15;6.82;;;9.40;99.90;;;;;;5134183;27;20071;-64
2022/11/10 04:09:38;;;;;;;36.92;7.43;;;8.90;99.90;;;;;;5134337;27;20050;-63
2022/11/10 04:17:32;;;;;;;31.83;8.48;;;9.40;99.90;;;;;;5134078;27;20089;-64
2022/11/10 04:19:59;;;;;;;32.05;8.13;;;9.00;99.90;;;;;;5134222;27;20527;-65
2022/11/10 04:25:22;;;;;;;35.90;8.95;;;10.10;99.90;;;;;;5110214;27;20055;-64
2022/11/10 04:27:48;;;;;;;36.60;9.77;;;9.80;99.90;;;;;;5132630;27;20103;-65
2022/11/10 04:30:14;;;;;;;31.45;9.00;;;9.60;99.90;;;;;;5133953;27;20039;-65
2022/11/10 04:32:39;;;;;;;33.85;8.73;;;9.00;99.90;;;;;;5133815;27;20436;-64
2022/11/10 04:35:05;;;;;;;32.85;9.18;;;9.50;99.90;;;;;;5133567;27;20471;-64
2022/11/10 04:37:31;;;;;;;35.90;8.57;;;9.20;99.90;;;;;;5133942;27;20510;-64
2022/11/10 04:39:57;;;;;;;42.15;10.07;;;9.60;99.90;;;;;;5133931;27;20035;-64
2022/11/10 04:42:22;;;;;;;35.28;9.13;;;10.10;99.90;;;;;;5133867;27;20039;-63
2022/11/10 04:44:48;;;;;;;46.70;9.80;;;9.60;99.90;;;;;;5133936;27;20192;-65
2022/11/10 04:47:13;;;;;;;36.65;10.32;;;10.30;99.90;;;;;;5133544;27;20459;-64
2022/11/10 04:49:39;;;;;;;38.53;9.50;;;10.10;99.90;;;;;;5133693;27;20494;-64
2022/11/10 04:52:05;;;;;;;41.13;9.13;;;9.40;99.90;;;;;;5133762;28;20086;-64
2022/11/10 04:54:30;;;;;;;29.10;7.93;;;9.40;99.90;;;;;;5133780;28;20122;-64
2022/11/10 04:56:56;;;;;;;31.20;9.02;;;9.70;99.90;;;;;;5133762;28;20101;-64
2022/11/10 04:59:22;;;;;;;32.08;9.13;;;9.40;99.90;;;;;;5133707;27;20050;-64
2022/11/10 05:01:47;;;;;;;34.20;9.20;;;9.50;99.90;;;;;;5133448;28;20047;-63
2022/11/10 05:04:13;;;;;;;39.00;9.75;;;9.50;99.90;;;;;;5133639;28;20047;-64
2022/11/10 05:06:38;;;;;;;41.55;9.38;;;10.10;99.90;;;;;;5132513;28;20057;-65
2022/11/10 05:09:04;;;;;;;39.03;10.30;;;9.20;99.90;;;;;;5133607;28;20139;-65
2022/11/10 05:11:30;;;;;;;35.83;9.85;;;10.60;99.90;;;;;;5133528;28;20152;-64
2022/11/10 05:13:55;;;;;;;45.03;9.82;;;9.40;99.90;;;;;;5133834;28;20111;-64
2022/11/10 05:16:21;;;;;;;39.42;10.07;;;9.50;99.90;;;;;;5133243;28;20043;-63
2022/11/10 05:18:52;;;;;;;30.08;9.27;;;9.70;99.90;;;;;;5135243;27;20043;-63
2022/11/10 05:21:18;;;;;;;45.92;8.93;;;10.30;99.90;;;;;;5137477;27;20810;-64
2022/11/10 05:23:45;;;;;;;48.03;9.30;;;9.80;99.90;;;;;;5137672;27;20126;-64
2022/11/10 05:26:13;;;;;;;42.42;8.45;;;10.10;99.90;;;;;;5137255;27;20479;-64
2022/11/10 05:28:40;;;;;;;37.83;8.40;;;10.10;99.90;;;;;;5137460;27;20051;-64
2022/11/10 05:31:06;;;;;;;32.20;8.25;;;9.30;99.90;;;;;;5137091;27;20039;-64
2022/11/10 05:33:32;;;;;;;24.50;8.05;;;9.80;99.90;;;;;;5137146;27;20096;-64
2022/11/10 05:35:58;;;;;;;31.05;8.00;;;11.40;99.90;;;;;;5137085;27;20499;-63
2022/11/10 05:38:24;;;;;;;32.00;8.57;;;10.00;99.90;;;;;;5137355;27;20083;-64
2022/11/10 05:40:50;;;;;;;32.25;8.25;;;9.90;99.90;;;;;;5137215;27;20043;-64
2022/11/10 05:43:16;;;;;;;31.60;7.57;;;9.70;99.90;;;;;;5136955;27;20047;-64
2022/11/10 05:45:41;;;;;;;41.58;8.38;;;10.00;99.90;;;;;;5135734;27;20050;-64
2022/11/10 05:48:07;;;;;;;41.95;7.68;;;10.30;99.90;;;;;;5135835;27;20039;-63
2022/11/10 05:50:33;;;;;;;39.92;8.48;;;9.90;99.90;;;;;;5136966;27;20088;-64
2022/11/10 05:52:59;;;;;;;39.08;8.05;;;10.00;99.90;;;;;;5137003;27;20131;-63
2022/11/10 05:55:26;;;;;;;38.28;6.85;;;9.90;99.90;;;;;;5136684;27;20058;-64
2022/11/10 05:57:54;;;;;;;29.80;8.30;;;10.10;99.90;;;;;;5135723;27;20043;-64
2022/11/10 06:00:22;;;;;;;32.70;7.65;;;9.90;99.90;;;;;;5136752;27;20164;-65
2022/11/10 06:03:01;;;;;;;29.25;6.25;;;9.90;99.90;;;;;;5136832;27;20069;-63
2022/11/10 06:05:28;;;;;;;33.58;5.78;;;10.00;99.90;;;;;;5136815;27;20082;-63
2022/11/10 06:07:54;;;;;;;30.25;6.40;;;10.00;99.90;;;;;;5136752;27;20082;-63
2022/11/10 06:10:20;;;;;;;27.20;6.28;;;10.00;99.90;;;;;;5136376;27;20506;-64
2022/11/10 06:12:46;;;;;;;35.13;6.30;;;9.90;99.90;;;;;;5136354;27;20039;-64
2022/11/10 06:15:12;;;;;;;26.42;6.00;;;10.10;99.90;;;;;;5136642;27;20042;-64
2022/11/10 06:17:38;;;;;;;37.42;6.30;;;10.30;99.90;;;;;;5136578;27;20040;-64
2022/11/10 06:20:04;;;;;;;31.17;6.13;;;10.20;99.90;;;;;;5136445;27;20100;-63
2022/11/10 06:22:29;;;;;;;43.22;7.40;;;9.70;99.90;;;;;;5136491;27;20054;-65
2022/11/10 06:24:55;;;;;;;32.72;6.18;;;10.10;99.90;;;;;;5136655;27;20126;-63
2022/11/10 06:27:21;;;;;;;27.92;6.00;;;9.80;99.90;;;;;;5136111;27;20051;-64
2022/11/10 06:29:46;;;;;;;31.17;6.10;;;10.40;99.90;;;;;;5135217;27;20046;-63
2022/11/10 06:32:12;;;;;;;38.63;6.15;;;10.40;99.90;;;;;;5136130;27;20439;-64
2022/11/10 06:34:38;;;;;;;37.35;6.07;;;10.10;99.90;;;;;;5136149;27;20102;-64
2022/11/10 06:37:03;;;;;;;42.03;6.10;;;10.40;99.90;;;;;;5136200;27;20152;-64
2022/11/10 06:39:29;;;;;;;36.45;5.43;;;9.70;99.90;;;;;;5136022;27;20050;-64
2022/11/10 06:41:54;;;;;;;37.92;6.50;;;10.10;99.90;;;;;;5135845;27;20068;-66
2022/11/10 06:44:20;;;;;;;33.97;5.80;;;10.30;99.90;;;;;;5136050;27;20493;-64
2022/11/10 06:46:46;;;;;;;28.63;5.43;;;9.90;99.90;;;;;;5136010;27;20043;-64
2022/11/10 06:49:11;;;;;;;32.60;5.60;;;9.80;99.90;;;;;;5135956;27;20043;-64
2022/11/10 06:51:37;;;;;;;29.35;5.65;;;10.10;99.90;;;;;;5135850;27;20043;-63
2022/11/10 06:54:03;;;;;;;28.92;4.68;;;9.80;99.90;;;;;;5135516;27;20050;-64
2022/11/10 06:56:28;;;;;;;42.15;5.60;;;9.70;99.90;;;;;;5135559;27;20158;-64
2022/11/10 06:58:54;;;;;;;32.25;5.20;;;10.20;99.90;;;;;;5135807;27;20082;-64
2022/11/10 07:01:24;;;;;;;39.28;5.80;;;9.70;99.90;;;;;;5135991;27;20100;-66
2022/11/10 07:03:53;;;;;;;37.92;5.45;;;9.90;99.90;;;;;;5135779;27;20410;-65
2022/11/10 07:06:20;;;;;;;43.90;6.90;;;9.80;99.90;;;;;;5110325;27;20047;-63
2022/11/10 07:08:46;;;;;;;;;;;10.50;99.90;;;;;;5114533;28;20519;-64
2022/11/10 07:11:11;;;;;;;32.53;4.68;;;9.70;99.90;;;;;;5114623;28;19920;-65
2022/11/10 07:13:37;;;;;;;31.50;5.60;;;9.60;99.90;;;;;;5114771;28;20468;-63
2022/11/10 07:16:04;;;;;;;37.33;5.05;;;9.70;99.90;;;;;;5103651;28;20044;-68
2022/11/10 07:18:30;;;;;;;26.25;4.95;;;9.80;99.90;;;;;;5101464;28;20123;-66
2022/11/10 07:20:55;;;;;;;33.88;5.10;;;9.70;99.90;;;;;;5110174;28;20118;-65
2022/11/10 07:23:21;;;;;;;36.78;5.20;;;9.90;99.90;;;;;;5114577;28;20472;-64
2022/11/10 07:25:47;;;;;;;29.88;5.88;;;9.80;99.90;;;;;;5108965;27;20119;-64
2022/11/10 07:28:12;;;;;;;24.77;4.70;;;9.90;99.90;;;;;;5113273;28;20048;-63
2022/11/10 07:30:40;;;;;;;31.55;5.00;;;10.10;99.90;;;;;;5116999;27;20096;-64
2022/11/10 07:33:12;;;;;;;27.80;4.95;;;10.00;99.90;;;;;;5094000;28;20101;-64
2022/11/10 07:35:38;;;;;;;29.73;5.00;;;9.70;99.90;;;;;;5106081;28;20059;-64
2022/11/10 07:38:14;;;;;;;26.50;4.75;;;9.90;99.90;;;;;;5127716;27;20058;-64
2022/11/10 07:40:40;;;;;;;31.30;6.03;;;9.70;99.90;;;;;;5134412;27;20126;-63
2022/11/10 07:43:06;;;;;;;38.53;4.93;;;10.30;99.90;;;;;;5133298;27;20090;-66
2022/11/10 07:45:32;;;;;;;32.40;6.30;;;10.30;99.90;;;;;;5134737;27;20043;-63
2022/11/10 07:48:03;;;;;;;33.42;6.20;;;9.70;99.90;;;;;;5134709;27;20087;-63
2022/11/10 07:50:29;;;;;;;33.53;5.50;;;10.40;99.90;;;;;;5107505;27;20040;-63
2022/11/10 07:53:07;;;;;;;32.05;5.35;;;10.30;99.90;;;;;;5114189;28;20042;-63
2022/11/10 07:55:33;;;;;;;36.05;5.40;;;10.80;99.90;;;;;;5113211;28;20488;-63
2022/11/10 07:57:59;;;;;;;33.58;5.75;;;11.10;99.90;;;;;;5113963;28;20040;-62
2022/11/10 08:00:26;;;;;;;39.38;6.15;;;12.30;99.90;;;;;;5112818;28;20195;-63
2022/11/10 08:02:52;;;;;;;32.85;5.90;;;10.70;99.90;;;;;;5114094;28;20089;-63
2022/11/10 08:05:18;;;;;;;33.60;6.10;;;10.30;99.90;;;;;;5114016;28;20467;-63
2022/11/10 08:07:44;;;;;;;;;;;10.90;99.90;;;;;;5113124;28;20092;-63
2022/11/10 08:10:09;;;;;;;32.38;5.13;;;10.50;99.90;;;;;;5112256;28;20423;-64
2022/11/10 08:12:35;;;;;;;35.50;5.38;;;11.90;99.90;;;;;;5113728;28;20044;-63
2022/11/10 08:15:02;;;;;;;35.65;6.28;;;10.40;99.90;;;;;;5113728;28;20388;-64
2022/11/10 08:17:27;;;;;;;31.95;5.22;;;10.60;99.90;;;;;;5113679;28;20092;-63
2022/11/10 08:19:53;;;;;;;31.65;4.95;;;10.20;99.90;;;;;;5113668;28;20044;-63
2022/11/10 08:22:18;;;;;;;36.38;7.20;;;10.30;99.90;;;;;;5113630;28;20467;-63
2022/11/10 08:24:44;;;;;;;27.13;5.45;;;10.60;99.90;;;;;;5113066;28;20100;-63
2022/11/10 08:27:10;;;;;;;35.28;5.93;;;10.20;99.90;;;;;;5113560;28;20073;-63
2022/11/10 08:29:36;;;;;;;30.83;4.90;;;11.10;99.90;;;;;;5113472;28;20061;-63
2022/11/10 08:32:02;;;;;;;33.97;5.15;;;11.00;99.90;;;;;;5113451;28;20369;-63
2022/11/10 08:34:27;;;;;;;30.50;5.80;;;8.70;99.90;;;;;;5112974;28;20112;-63
2022/11/10 08:36:53;;;;;;;33.28;5.45;;;10.90;99.90;;;;;;5113413;28;20093;-63
2022/11/10 08:39:19;;;;;;;36.28;5.18;;;10.70;99.90;;;;;;5113176;28;20047;-63
2022/11/10 08:41:44;;;;;;;35.22;5.00;;;11.50;99.90;;;;;;5113670;28;20044;-63
2022/11/10 08:44:12;;;;;;;29.33;5.38;;;11.00;99.90;;;;;;5113338;28;20047;-63
2022/11/10 08:46:38;;;;;;;25.73;5.25;;;11.00;99.90;;;;;;5113321;28;20054;-64
2022/11/10 08:49:03;;;;;;;26.85;5.07;;;11.00;99.90;;;;;;5113344;28;20392;-64
2022/11/10 08:51:29;;;;;;;31.48;5.68;;;11.20;99.90;;;;;;5113239;28;20047;-64
2022/11/10 08:53:55;;;;;;;33.30;5.78;;;11.00;99.90;;;;;;5112140;28;20365;-63
2022/11/10 08:56:20;;;;;;;29.98;5.50;;;10.80;99.90;;;;;;5113479;28;20043;-63
2022/11/10 08:58:46;;;;;;;34.00;5.15;;;11.20;99.90;;;;;;5113198;28;20079;-67
2022/11/10 09:01:12;;;;;;;27.25;5.63;;;11.10;99.90;;;;;;5113217;28;20097;-64
2022/11/10 09:03:38;;;;;;;30.58;4.93;;;11.50;99.90;;;;;;5113404;28;20089;-64
2022/11/10 09:06:04;;;;;;;31.92;4.45;;;11.60;99.90;;;;;;5113101;28;20039;-64
2022/11/10 09:08:32;;;;;;;34.55;5.07;;;11.30;99.90;;;;;;5112793;28;20053;-63
2022/11/10 09:11:03;;;;;;;32.15;4.68;;;11.60;99.90;;;;;;5113004;28;20043;-64
2022/11/10 09:13:29;;;;;;;43.72;5.20;;;11.50;99.90;;;;;;5113154;28;20048;-64
2022/11/10 09:15:56;;;;;;;24.23;4.95;;;11.70;99.90;;;;;;5113040;28;20036;-63
2022/11/10 09:18:21;;;;;;;35.05;6.18;;;11.70;99.90;;;;;;5113046;28;20066;-66
2022/11/10 09:20:47;;;;;;;31.20;5.38;;;12.80;99.90;;;;;;5112957;28;20084;-64
2022/11/10 09:23:15;;;;;;;30.42;4.65;;;12.10;99.90;;;;;;5112691;28;20051;-64
2022/11/10 09:25:42;;;;;;;36.72;5.32;;;12.10;99.90;;;;;;5112894;28;20051;-63
2022/11/10 09:28:14;;;;;;;34.03;5.75;;;12.70;99.90;;;;;;5112853;28;20040;-64
2022/11/10 09:30:40;;;;;;;27.55;4.15;;;11.80;99.90;;;;;;5112785;28;20078;-63
2022/11/10 09:33:06;;;;;;;;;;;12.30;99.90;;;;;;5113303;28;20543;-63
2022/11/10 09:35:32;;;;;;;25.02;4.45;;;12.10;99.90;;;;;;5112459;28;20010;-64
2022/11/10 09:37:58;;;;;;;26.92;4.18;;;12.30;99.90;;;;;;5111261;28;20059;-64
2022/11/10 09:40:49;;;;;;;29.05;3.92;;;12.40;99.90;;;;;;5112752;28;20051;-64
2022/11/10 09:43:29;;;;;;;29.40;4.32;;;12.40;99.90;;;;;;5112784;28;20051;-63
2022/11/10 09:45:59;;;;;;;25.13;4.05;;;12.10;99.90;;;;;;5112745;28;20107;-64
2022/11/10 09:48:28;;;;;;;26.58;4.70;;;12.50;99.90;;;;;;5112807;28;20092;-63
2022/11/10 09:51:09;;;;;;;27.67;4.82;;;12.60;99.90;;;;;;5112361;28;20387;-64
2022/11/10 09:53:59;;;;;;;25.77;5.05;;;12.50;99.90;;;;;;5112735;28;20137;-64
2022/11/10 09:56:33;;;;;;;30.70;4.40;;;12.40;99.90;;;;;;5112712;28;20456;-64
2022/11/10 09:59:02;;;;;;;30.25;4.82;;;12.50;99.90;;;;;;5112680;28;20048;-63
2022/11/10 10:01:51;;;;;;;20.90;4.57;;;12.70;99.90;;;;;;5111394;28;20050;-63
2022/11/10 10:04:38;;;;;;;27.10;5.65;;;12.50;99.90;;;;;;5112576;28;20051;-64
2022/11/10 10:07:34;;;;;;;26.43;4.87;;;12.90;99.90;;;;;;5116144;28;20047;-63
2022/11/10 10:10:18;;;;;;;27.08;5.00;;;13.20;99.90;;;;;;5115022;28;20074;-63
2022/11/10 10:12:53;;;;;;;26.50;5.70;;;13.00;99.90;;;;;;5116206;28;20058;-63
2022/11/10 10:15:37;;;;;;;25.42;5.10;;;12.80;99.90;;;;;;5116026;28;20054;-64
2022/11/10 10:18:29;;;;;;;32.20;4.70;;;12.70;99.90;;;;;;5116276;28;20372;-64
2022/11/10 10:20:58;;;;;;;29.65;5.88;;;13.00;99.90;;;;;;5115702;28;20043;-64
2022/11/10 10:23:34;;;;;;;29.27;5.07;;;12.70;99.90;;;;;;5115931;28;20051;-63
2022/11/10 10:26:01;;;;;;;23.02;5.10;;;12.50;99.90;;;;;;5115920;28;20035;-63
2022/11/10 10:28:43;;;;;;;24.50;4.80;;;12.50;99.90;;;;;;5115805;28;20134;-63
2022/11/10 10:31:23;;;;;;;31.55;6.38;;;12.70;99.90;;;;;;5115668;28;20126;-64
2022/11/10 10:33:50;;;;;;;28.30;5.28;;;12.60;99.90;;;;;;5115234;28;20127;-64
2022/11/10 10:36:27;;;;;;;31.38;5.78;;;13.00;99.90;;;;;;5115600;28;20063;-63
2022/11/10 10:39:06;;;;;;;26.25;4.25;;;12.80;99.90;;;;;;5115707;28;20054;-64
2022/11/10 10:41:35;;;;;;;32.28;5.05;;;12.70;99.90;;;;;;5114380;28;20047;-63
2022/11/10 10:44:08;;;;;;;25.15;4.97;;;12.80;99.90;;;;;;5115468;28;20545;-63
2022/11/10 10:46:45;;;;;;;29.55;5.57;;;13.00;99.90;;;;;;5115520;28;20507;-64
2022/11/10 10:49:25;;;;;;;27.20;4.47;;;12.90;99.90;;;;;;5115197;28;20404;-63
2022/11/10 10:52:03;;;;;;;19.20;3.70;;;13.00;99.90;;;;;;5115305;28;20035;-64
2022/11/10 10:54:37;;;;;;;24.92;4.63;;;13.70;99.90;;;;;;5115032;28;20487;-65
2022/11/10 10:57:29;;;;;;;21.80;3.97;;;13.20;99.90;;;;;;5115056;28;20527;-64
2022/11/10 11:00:16;;;;;;;29.63;4.82;;;13.10;99.90;;;;;;5115216;28;20040;-64
2022/11/10 11:02:42;;;;;;;25.95;4.20;;;13.10;99.90;;;;;;5114569;28;20553;-63
2022/11/10 11:05:13;;;;;;;24.90;4.22;;;13.20;99.90;;;;;;5114793;28;20051;-65
2022/11/10 11:07:38;;;;;;;23.80;4.10;;;13.20;99.90;;;;;;5115050;28;20112;-65
2022/11/10 11:10:21;;;;;;;26.35;6.10;;;13.10;99.90;;;;;;5114894;28;20044;-65
2022/11/10 11:12:47;;;;;;;19.55;4.38;;;13.10;99.90;;;;;;5114948;28;20047;-64
2022/11/10 11:15:29;;;;;;;21.08;4.85;;;13.40;99.90;;;;;;5114879;28;20101;-62
2022/11/10 11:18:01;;;;;;;25.40;5.45;;;13.20;99.90;;;;;;5114214;28;20043;-63
2022/11/10 11:20:49;;;;;;;33.00;5.38;;;13.70;99.90;;;;;;5114778;28;20047;-64
2022/11/10 11:23:48;;;;;;;29.83;5.35;;;13.30;99.90;;;;;;5114815;28;20426;-63
2022/11/10 11:26:35;;;;;;;27.63;5.85;;;13.20;99.90;;;;;;5114634;28;20046;-64
2022/11/10 11:29:27;;;;;;;24.20;5.10;;;13.40;99.90;;;;;;5114279;28;20503;-64
2022/11/10 11:32:11;;;;;;;24.73;5.47;;;13.40;99.90;;;;;;5114134;28;20117;-65
2022/11/10 11:35:01;;;;;;;29.73;5.30;;;13.40;99.90;;;;;;5114300;28;20058;-63
2022/11/10 11:37:45;;;;;;;23.95;5.50;;;13.10;99.90;;;;;;5114403;28;20051;-63
2022/11/10 11:40:31;;;;;;;29.45;5.80;;;13.20;99.90;;;;;;5114057;28;20591;-64
2022/11/10 11:43:27;;;;;;;36.20;5.82;;;13.20;99.90;;;;;;5114365;28;20090;-64
2022/11/10 11:46:19;;;;;;;26.77;5.68;;;13.20;99.90;;;;;;5114362;28;20079;-63
2022/11/10 11:48:58;;;;;;;24.35;6.10;;;13.10;99.90;;;;;;5082468;27;20470;-63
2022/11/10 11:51:42;;;;;;;34.45;6.03;;;13.20;99.90;;;;;;5114104;28;20130;-65
2022/11/10 11:54:19;;;;;;;32.20;5.88;;;13.20;99.90;;;;;;5114118;28;20084;-63
2022/11/10 11:56:48;;;;;;;23.65;5.82;;;13.20;99.90;;;;;;5114156;28;20185;-63
2022/11/10 11:59:23;;;;;;;34.90;6.47;;;12.90;99.90;;;;;;5114074;28;20117;-65
2022/11/10 12:02:01;;;;;;;24.45;5.35;;;12.90;99.90;;;;;;5113712;28;20046;-66
2022/11/10 12:04:44;;;;;;;22.05;5.78;;;13.10;99.90;;;;;;5113980;28;20051;-64
2022/11/10 12:07:16;;;;;;;29.63;5.72;;;13.30;99.90;;;;;;5113629;28;20547;-64
2022/11/10 12:09:45;;;;;;;29.58;6.47;;;13.30;99.90;;;;;;5113424;28;20514;-63
2022/11/10 12:12:29;;;;;;;28.15;6.40;;;12.80;99.90;;;;;;5113771;28;20047;-64
2022/11/10 12:15:20;;;;;;;27.50;6.00;;;13.20;99.90;;;;;;5113845;28;20504;-63
2022/11/10 12:18:05;;;;;;;24.95;6.15;;;12.90;99.90;;;;;;5113412;28;20487;-64
2022/11/10 12:20:54;;;;;;;31.00;6.90;;;13.00;99.90;;;;;;5113739;28;20039;-64
2022/11/10 12:23:57;;;;;;;37.78;6.13;;;12.90;99.90;;;;;;5112477;28;20058;-65
2022/11/10 12:26:33;;;;;;;38.30;5.88;;;13.00;99.90;;;;;;5045291;28;20059;-64
2022/11/10 12:29:08;;;;;;;;;;;12.80;99.90;;;;;;5113262;27;20054;-64
2022/11/10 12:31:37;;;;;;;27.10;6.47;;;12.70;99.90;;;;;;5112838;28;20680;-64
2022/11/10 12:34:21;;;;;;;29.52;6.80;;;13.60;99.90;;;;;;5113214;28;20373;-63
2022/11/10 12:36:49;;;;;;;29.30;5.63;;;12.70;99.90;;;;;;5112505;28;20063;-62
2022/11/10 12:39:29;;;;;;;26.75;6.15;;;12.80;99.90;;;;;;5113483;28;20410;-65
2022/11/10 12:41:58;;;;;;;23.77;6.40;;;12.80;99.90;;;;;;5112446;28;20082;-64
2022/11/10 12:44:38;;;;;;;31.10;5.30;;;12.60;99.90;;;;;;5113035;28;20089;-64
2022/11/10 12:47:09;;;;;;;29.23;6.18;;;13.00;99.90;;;;;;5113392;28;20116;-64
2022/11/10 12:49:37;;;;;;;33.90;6.00;;;12.70;99.90;;;;;;5113253;28;20130;-65
2022/11/10 12:52:20;;;;;;;26.67;5.68;;;12.60;99.90;;;;;;5113235;28;20565;-64
2022/11/10 12:54:46;;;;;;;29.45;6.93;;;12.90;99.90;;;;;;5113292;28;20051;-64
2022/11/10 12:57:22;;;;;;;29.02;6.15;;;12.70;99.90;;;;;;5113212;28;20063;-65
2022/11/10 13:00:04;;;;;;;27.25;5.55;;;13.10;99.90;;;;;;5112963;28;20039;-64
2022/11/10 13:02:42;;;;;;;21.20;5.28;;;13.30;99.90;;;;;;5111937;28;20040;-64
2022/11/10 13:05:25;;;;;;;28.23;5.57;;;13.30;99.90;;;;;;5113174;28;20047;-63
2022/11/10 13:08:14;;;;;;;27.95;5.68;;;13.10;99.90;;;;;;5113104;28;20468;-64
2022/11/10 13:11:09;;;;;;;27.55;6.82;;;13.30;99.90;;;;;;5113062;28;20055;-66